Aviation Digital Data Service (ADDS)

Output produced by METARs form (1109 UTC 13 December 2017)
found at http://www.aviationweather.gov/adds/metars/
 
EGYP 131050Z 31026G36KT 9999 FEW020 BKN110 10/03 Q1004 BLU NOSIG
TAF EGYP 131012Z 1312/1406 30020G30KT CAVOK 
     BECMG 1313/1315 33020G30KT 520003 
     TEMPO 1313/1402 33030G45KT 530003 
     PROB40 
     TEMPO 1313/1402 VRB08KT SCT007 560003 
     BECMG 1401/1403 33020G30KT 50////